createdAt,value
2022-11-16T00:02:14.986Z,8.73
2022-11-16T00:04:42.159Z,9.43
2022-11-16T00:07:10.551Z,8.65
2022-11-16T00:09:41.644Z,9.02
2022-11-16T00:14:42.824Z,8.93
2022-11-16T00:17:11.686Z,8.55
2022-11-16T00:19:39.283Z,9.32
2022-11-16T00:22:06.250Z,9.55
2022-11-16T00:24:36.039Z,8.38
2022-11-16T00:27:06.835Z,8.38
2022-11-16T00:29:33.956Z,8.88
2022-11-16T00:32:01.239Z,8.77
2022-11-16T00:34:28.227Z,7.40
2022-11-16T00:36:57.756Z,9.10
2022-11-16T00:39:25.371Z,8.70
2022-11-16T00:41:55.501Z,8.32
2022-11-16T00:44:23.571Z,7.95
2022-11-16T00:46:50.596Z,8.43
2022-11-16T00:49:20.182Z,8.07
2022-11-16T00:51:47.004Z,8.77
2022-11-16T00:54:13.834Z,8.27
2022-11-16T00:56:40.884Z,8.63
2022-11-16T00:59:07.956Z,8.27
2022-11-16T01:01:35.372Z,8.35
2022-11-16T01:04:02.228Z,8.48
2022-11-16T01:06:29.466Z,8.38
2022-11-16T01:08:56.863Z,7.28
2022-11-16T01:11:42.519Z,8.55
2022-11-16T01:14:10.440Z,8.70
2022-11-16T01:16:37.646Z,8.10
2022-11-16T01:19:05.687Z,8.30
2022-11-16T01:21:33.230Z,7.60
2022-11-16T01:24:00.791Z,8.20
2022-11-16T01:26:28.347Z,8.07
2022-11-16T01:28:55.352Z,8.27
2022-11-16T01:31:23.115Z,8.32
2022-11-16T01:33:51.320Z,8.10
2022-11-16T01:36:19.511Z,8.68
2022-11-16T01:38:50.778Z,8.02
2022-11-16T01:41:21.060Z,7.80
2022-11-16T01:44:02.697Z,8.38
2022-11-16T01:46:31.301Z,7.82
2022-11-16T01:49:06.045Z,7.75
2022-11-16T01:51:34.248Z,8.00
2022-11-16T01:54:05.901Z,8.65
2022-11-16T01:56:33.562Z,7.97
2022-11-16T01:59:00.438Z,8.75
2022-11-16T02:01:27.550Z,8.27
2022-11-16T02:03:54.380Z,7.75
2022-11-16T02:06:33.140Z,8.75
2022-11-16T02:09:39.974Z,8.02
2022-11-16T02:12:09.549Z,7.43
2022-11-16T02:14:49.930Z,8.88
2022-11-16T02:17:36.765Z,9.13
2022-11-16T02:20:31.488Z,9.15
2022-11-16T02:23:13.506Z,9.35
2022-11-16T02:26:20.066Z,10.43
2022-11-16T02:28:46.948Z,9.52
2022-11-16T02:31:29.618Z,9.35
2022-11-16T02:33:57.715Z,9.57
2022-11-16T02:36:25.847Z,10.20
2022-11-16T02:39:01.358Z,9.88
2022-11-16T02:41:32.579Z,9.48
2022-11-16T02:44:08.768Z,9.68
2022-11-16T02:46:44.381Z,9.02
2022-11-16T02:49:17.745Z,8.95
2022-11-16T02:51:51.086Z,9.15
2022-11-16T02:54:20.549Z,9.65
2022-11-16T02:57:03.222Z,8.95
2022-11-16T02:59:54.208Z,9.70
2022-11-16T03:02:46.915Z,9.88
2022-11-16T03:05:39.947Z,9.95
2022-11-16T03:08:19.345Z,10.30
2022-11-16T03:11:10.397Z,9.98
2022-11-16T03:13:41.123Z,10.68
2022-11-16T03:16:22.158Z,10.68
2022-11-16T03:18:52.301Z,10.55
2022-11-16T03:21:29.938Z,9.95
2022-11-16T03:23:57.876Z,10.88
2022-11-16T03:26:30.865Z,9.55
2022-11-16T03:29:05.783Z,10.05
2022-11-16T03:31:42.243Z,10.07
2022-11-16T03:34:16.558Z,11.02
2022-11-16T03:36:49.947Z,9.95
2022-11-16T03:39:33.398Z,10.55
2022-11-16T03:42:12.465Z,9.40
2022-11-16T03:44:39.269Z,9.73
2022-11-16T03:47:06.871Z,9.88
2022-11-16T03:49:33.857Z,9.70
2022-11-16T03:52:00.835Z,10.27
2022-11-16T03:54:27.783Z,10.40
2022-11-16T03:56:54.862Z,10.77
2022-11-16T03:59:21.537Z,10.35
2022-11-16T04:01:50.726Z,11.00
2022-11-16T04:04:36.421Z,9.32
2022-11-16T04:07:21.742Z,11.05
2022-11-16T04:10:07.071Z,10.52
2022-11-16T04:12:52.940Z,10.35
2022-11-16T04:15:42.931Z,10.23
2022-11-16T04:18:29.192Z,10.52
2022-11-16T04:21:15.743Z,10.23
2022-11-16T04:24:01.459Z,10.25
2022-11-16T04:26:57.144Z,9.65
2022-11-16T04:29:25.700Z,9.45
2022-11-16T04:32:11.456Z,10.25
2022-11-16T04:34:56.816Z,10.20
2022-11-16T04:37:41.931Z,10.20
2022-11-16T04:40:12.319Z,9.77
2022-11-16T04:42:39.451Z,9.75
2022-11-16T04:45:25.069Z,11.40
2022-11-16T04:47:52.703Z,10.45
2022-11-16T04:50:20.658Z,10.13
2022-11-16T04:52:47.717Z,9.82
2022-11-16T04:55:14.799Z,10.13
2022-11-16T04:57:41.852Z,10.43
2022-11-16T05:00:09.180Z,9.77
2022-11-16T05:02:37.328Z,9.98
2022-11-16T05:05:04.593Z,10.50
2022-11-16T05:07:31.743Z,10.23
2022-11-16T05:09:59.740Z,9.90
2022-11-16T05:12:28.596Z,9.93
2022-11-16T05:15:15.487Z,10.77
2022-11-16T05:17:42.911Z,9.80
2022-11-16T05:20:29.353Z,11.27
2022-11-16T05:22:58.132Z,10.27
2022-11-16T05:25:25.084Z,9.77
2022-11-16T05:27:57.452Z,10.68
2022-11-16T05:30:24.145Z,11.00
2022-11-16T05:32:51.175Z,10.57
2022-11-16T05:35:18.118Z,10.15
2022-11-16T05:37:45.128Z,10.23
2022-11-16T05:40:16.231Z,10.73
2022-11-16T05:45:18.439Z,9.50
2022-11-16T05:47:49.907Z,9.73
2022-11-16T05:50:19.937Z,10.45
2022-11-16T05:52:46.936Z,10.48
2022-11-16T05:55:17.121Z,10.18
2022-11-16T05:57:44.063Z,10.65
2022-11-16T06:00:12.984Z,11.13
2022-11-16T06:02:39.480Z,10.43
2022-11-16T06:05:06.043Z,10.95
2022-11-16T06:07:34.143Z,11.35
2022-11-16T06:10:00.633Z,10.38
2022-11-16T06:12:26.977Z,10.25
2022-11-16T06:14:53.357Z,10.68
2022-11-16T06:17:19.688Z,10.52
2022-11-16T06:19:46.129Z,10.13
2022-11-16T06:22:12.534Z,10.35
2022-11-16T06:24:38.919Z,9.57
2022-11-16T06:27:05.351Z,10.18
2022-11-16T06:29:31.798Z,10.57
2022-11-16T06:31:58.186Z,11.10
2022-11-16T06:34:25.070Z,10.18
2022-11-16T06:36:51.584Z,10.18
2022-11-16T06:39:18.047Z,10.32
2022-11-16T06:41:44.477Z,10.90
2022-11-16T06:44:11.084Z,11.20
2022-11-16T06:46:37.498Z,11.00
2022-11-16T06:49:04.093Z,10.57
2022-11-16T06:51:30.673Z,10.77
2022-11-16T06:53:57.127Z,10.95
2022-11-16T06:56:23.806Z,11.10
2022-11-16T06:58:53.265Z,10.77
2022-11-16T07:01:20.410Z,10.82
2022-11-16T07:03:46.966Z,11.45
2022-11-16T07:06:14.356Z,10.68
2022-11-16T07:08:41.298Z,10.77
2022-11-16T07:11:09.550Z,10.52
2022-11-16T07:13:37.774Z,11.38
2022-11-16T07:16:06.732Z,12.57
2022-11-16T07:18:35.610Z,10.35
2022-11-16T07:21:07.439Z,11.25
2022-11-16T07:23:34.556Z,10.70
2022-11-16T07:26:02.670Z,10.82
2022-11-16T07:28:29.708Z,10.77
2022-11-16T07:31:01.637Z,10.30
2022-11-16T07:34:37.303Z,10.45
2022-11-16T07:38:17.803Z,11.63
2022-11-16T07:41:53.425Z,10.95
2022-11-16T07:45:32.264Z,11.52
2022-11-16T07:48:23.916Z,10.35
2022-11-16T07:50:50.420Z,11.25
2022-11-16T07:53:17.176Z,10.80
2022-11-16T07:55:43.621Z,10.75
2022-11-16T07:58:12.769Z,11.32
2022-11-16T08:00:39.347Z,11.07
2022-11-16T08:03:06.627Z,11.05
2022-11-16T08:05:33.113Z,11.23
2022-11-16T08:07:59.608Z,15.68
2022-11-16T08:10:26.123Z,10.88
2022-11-16T08:12:53.257Z,10.52
2022-11-16T08:15:19.811Z,10.25
2022-11-16T08:17:47.754Z,11.13
2022-11-16T08:20:14.509Z,10.43
2022-11-16T08:22:41.021Z,10.80
2022-11-16T08:25:07.994Z,11.15
2022-11-16T08:27:35.460Z,10.90
2022-11-16T08:30:04.780Z,10.82
2022-11-16T08:32:31.550Z,14.45
2022-11-16T08:34:58.071Z,11.63
2022-11-16T08:37:26.023Z,11.57
2022-11-16T08:39:52.503Z,11.30
2022-11-16T08:42:18.946Z,11.38
2022-11-16T08:44:45.847Z,11.98
2022-11-16T08:47:12.772Z,11.57
2022-11-16T08:49:39.297Z,12.27
2022-11-16T08:52:06.188Z,12.05
2022-11-16T08:54:32.698Z,13.07
2022-11-16T08:56:59.344Z,12.90
2022-11-16T08:59:25.892Z,11.15
2022-11-16T09:01:52.567Z,11.30
2022-11-16T09:04:19.630Z,10.93
2022-11-16T09:06:46.307Z,11.23
2022-11-16T09:09:12.971Z,10.52
2022-11-16T09:11:39.578Z,10.35
2022-11-16T09:14:06.282Z,11.10
2022-11-16T09:16:32.793Z,11.27
2022-11-16T09:18:59.353Z,10.60
2022-11-16T09:21:27.724Z,10.57
2022-11-16T09:23:55.495Z,10.98
2022-11-16T09:26:23.563Z,10.55
2022-11-16T09:28:58.841Z,9.98
2022-11-16T09:31:27.623Z,11.52
2022-11-16T09:33:58.676Z,10.60
2022-11-16T09:36:27.448Z,11.30
2022-11-16T09:39:19.431Z,11.98
2022-11-16T09:41:52.394Z,11.57
2022-11-16T09:44:57.508Z,10.90
2022-11-16T09:47:52.025Z,10.07
2022-11-16T09:50:53.117Z,9.65
2022-11-16T09:53:34.250Z,10.07
2022-11-16T09:56:19.181Z,9.82
2022-11-16T09:59:02.741Z,9.65
2022-11-16T10:01:48.301Z,9.55
2022-11-16T10:04:44.353Z,9.80
2022-11-16T10:07:45.815Z,9.70
2022-11-16T10:10:52.341Z,9.35
2022-11-16T10:14:15.735Z,8.82
2022-11-16T10:17:23.157Z,9.18
2022-11-16T10:19:58.593Z,10.00
2022-11-16T10:22:44.052Z,8.98
2022-11-16T10:25:51.168Z,9.73
2022-11-16T10:28:20.721Z,9.45
2022-11-16T10:31:09.196Z,9.43
2022-11-16T10:33:38.151Z,9.43
2022-11-16T10:36:12.985Z,9.77
2022-11-16T10:38:41.126Z,8.70
2022-11-16T10:41:21.350Z,9.18
2022-11-16T10:43:48.707Z,8.85
2022-11-16T10:46:39.716Z,8.43
2022-11-16T10:49:27.172Z,8.98
2022-11-16T10:51:53.994Z,8.35
2022-11-16T10:54:20.475Z,8.10
2022-11-16T10:56:49.742Z,8.05
2022-11-16T10:59:19.394Z,7.75
2022-11-16T11:01:53.165Z,8.15
2022-11-16T11:04:31.320Z,8.40
2022-11-16T11:07:30.603Z,7.80
2022-11-16T11:09:57.165Z,8.38
2022-11-16T11:12:41.188Z,7.88
2022-11-16T11:15:26.178Z,7.45
2022-11-16T11:18:16.807Z,10.18
2022-11-16T11:20:46.863Z,8.32
2022-11-16T11:23:16.397Z,7.90
2022-11-16T11:25:56.711Z,8.50
2022-11-16T11:28:32.577Z,9.27
2022-11-16T11:31:17.320Z,7.72
2022-11-16T11:33:51.102Z,10.15
2022-11-16T11:36:24.026Z,9.02
2022-11-16T11:39:03.467Z,9.55
2022-11-16T11:41:37.019Z,9.13
2022-11-16T11:44:04.756Z,9.77
2022-11-16T11:47:18.344Z,9.98
2022-11-16T11:49:33.616Z,9.65
2022-11-16T11:52:09.359Z,9.50
2022-11-16T11:54:45.671Z,9.90
2022-11-16T11:57:15.630Z,9.05
2022-11-16T11:59:42.301Z,10.27
2022-11-16T12:02:23.984Z,9.30
2022-11-16T12:05:29.902Z,9.43
2022-11-16T12:08:05.664Z,9.35
2022-11-16T12:10:48.806Z,9.23
2022-11-16T12:13:36.958Z,9.05
2022-11-16T12:16:47.695Z,10.43
2022-11-16T12:19:43.785Z,10.35
2022-11-16T12:22:26.407Z,10.32
2022-11-16T12:25:12.396Z,10.77
2022-11-16T12:28:08.553Z,10.80
2022-11-16T12:30:49.047Z,10.75
2022-11-16T12:33:50.228Z,10.93
2022-11-16T12:36:48.283Z,11.60
2022-11-16T12:39:33.223Z,12.07
2022-11-16T12:41:59.707Z,11.63
2022-11-16T12:44:31.896Z,12.07
2022-11-16T12:47:13.549Z,10.90
2022-11-16T12:49:59.233Z,11.45
2022-11-16T12:52:41.381Z,11.57
2022-11-16T12:55:52.880Z,10.95
2022-11-16T12:58:23.537Z,11.02
2022-11-16T13:01:16.288Z,11.50
2022-11-16T13:04:09.699Z,10.93
2022-11-16T13:06:50.874Z,11.02
2022-11-16T13:09:26.390Z,11.48
2022-11-16T13:12:00.642Z,11.07
2022-11-16T13:14:40.091Z,11.13
2022-11-16T13:17:07.787Z,10.95
2022-11-16T13:19:42.037Z,11.30
2022-11-16T13:22:18.005Z,11.20
2022-11-16T13:25:17.871Z,10.38
2022-11-16T13:27:53.966Z,13.10
2022-11-16T13:30:24.797Z,10.90
2022-11-16T13:33:22.566Z,11.57
2022-11-16T13:35:52.548Z,11.68
2022-11-16T13:38:53.827Z,10.32
2022-11-16T13:41:33.782Z,12.15
2022-11-16T13:44:02.061Z,10.43
2022-11-16T13:46:55.906Z,11.07
2022-11-16T13:49:33.790Z,11.32
2022-11-16T13:52:31.748Z,10.50
2022-11-16T13:55:01.614Z,9.95
2022-11-16T13:57:34.112Z,11.27
2022-11-16T14:00:00.595Z,11.20
2022-11-16T14:02:37.440Z,11.30
2022-11-16T14:05:06.662Z,11.25
2022-11-16T14:07:43.264Z,10.80
2022-11-16T14:10:11.450Z,11.20
2022-11-16T14:12:38.245Z,18.67
2022-11-16T14:15:32.035Z,12.02
2022-11-16T14:18:00.820Z,10.05
2022-11-16T14:20:37.251Z,10.68
2022-11-16T14:23:22.500Z,10.80
2022-11-16T14:25:53.307Z,11.27
2022-11-16T14:28:34.866Z,12.00
2022-11-16T14:31:20.243Z,10.38
2022-11-16T14:33:52.355Z,10.20
2022-11-16T14:36:36.403Z,10.88
2022-11-16T14:39:37.239Z,13.45
2022-11-16T14:42:16.319Z,11.02
2022-11-16T14:44:44.015Z,11.88
2022-11-16T14:47:24.819Z,12.27
2022-11-16T14:49:52.208Z,12.63
2022-11-16T14:52:29.196Z,11.65
2022-11-16T14:55:00.669Z,10.90
2022-11-16T14:57:27.260Z,12.15
2022-11-16T15:00:19.585Z,11.55
2022-11-16T15:02:59.150Z,13.20
2022-11-16T15:05:33.732Z,12.23
2022-11-16T15:08:03.743Z,12.50
2022-11-16T15:10:30.395Z,12.55
2022-11-16T15:12:57.860Z,12.73
2022-11-16T15:15:30.453Z,12.90
2022-11-16T15:17:59.767Z,14.15
2022-11-16T15:20:32.256Z,13.82
2022-11-16T15:23:00.344Z,14.23
2022-11-16T15:25:34.858Z,13.63
2022-11-16T15:28:13.247Z,13.75
2022-11-16T15:30:40.558Z,14.10
2022-11-16T15:33:15.532Z,13.88
2022-11-16T15:35:42.610Z,14.30
2022-11-16T15:38:22.991Z,14.82
2022-11-16T15:40:51.817Z,13.77
2022-11-16T15:43:20.155Z,19.75
2022-11-16T15:45:47.304Z,14.75
2022-11-16T15:48:22.589Z,14.90
2022-11-16T15:51:05.027Z,14.73
2022-11-16T15:53:40.577Z,15.18
2022-11-16T15:56:25.068Z,15.77
2022-11-16T15:58:53.919Z,15.07
2022-11-16T16:01:22.169Z,15.80
2022-11-16T16:04:04.214Z,15.52
2022-11-16T16:06:49.731Z,16.23
2022-11-16T16:09:32.988Z,17.17
2022-11-16T16:12:20.861Z,19.38
2022-11-16T16:14:49.297Z,17.85
2022-11-16T16:17:29.923Z,18.85
2022-11-16T16:20:09.193Z,17.83
2022-11-16T16:22:40.084Z,18.80
2022-11-16T16:25:07.416Z,18.05
2022-11-16T16:27:39.542Z,18.15
2022-11-16T16:30:07.426Z,18.08
2022-11-16T16:32:37.062Z,18.20
2022-11-16T16:35:08.590Z,24.05
2022-11-16T16:37:38.619Z,30.30
2022-11-16T16:40:05.999Z,21.08
2022-11-16T16:42:32.702Z,20.27
2022-11-16T16:45:00.398Z,19.98
2022-11-16T16:47:29.540Z,18.77
2022-11-16T16:49:56.019Z,23.73
2022-11-16T16:52:23.107Z,22.23
2022-11-16T16:54:50.434Z,19.30
2022-11-16T16:57:18.745Z,18.95
2022-11-16T16:59:48.313Z,16.48
2022-11-16T17:02:16.230Z,15.68
2022-11-16T17:04:44.057Z,16.08
2022-11-16T17:07:10.767Z,17.88
2022-11-16T17:09:37.359Z,17.67
2022-11-16T17:12:04.199Z,16.30
2022-11-16T17:14:30.748Z,16.13
2022-11-16T17:16:57.486Z,16.63
2022-11-16T17:19:24.435Z,16.15
2022-11-16T17:21:52.143Z,16.63
2022-11-16T17:24:18.817Z,14.63
2022-11-16T17:26:48.455Z,15.23
2022-11-16T17:29:15.376Z,14.00
2022-11-16T17:31:44.898Z,16.40
2022-11-16T17:34:13.829Z,16.25
2022-11-16T17:36:41.402Z,15.25
2022-11-16T17:39:08.024Z,16.33
2022-11-16T17:41:34.927Z,16.30
2022-11-16T17:44:01.489Z,15.05
2022-11-16T17:46:29.424Z,14.95
2022-11-16T17:48:56.438Z,15.45
2022-11-16T17:51:25.073Z,14.95
2022-11-16T17:53:52.667Z,15.05
2022-11-16T17:56:22.018Z,14.32
2022-11-16T17:58:52.118Z,14.38
2022-11-16T18:01:19.191Z,15.20
2022-11-16T18:03:45.951Z,15.60
2022-11-16T18:06:15.243Z,18.15
2022-11-16T18:08:43.733Z,17.45
2022-11-16T18:11:11.777Z,15.60
2022-11-16T18:13:42.344Z,15.98
2022-11-16T18:16:13.628Z,15.85
2022-11-16T18:18:40.280Z,16.67
2022-11-16T18:21:08.207Z,15.43
2022-11-16T18:23:38.285Z,16.67
2022-11-16T18:26:14.038Z,17.00
2022-11-16T18:28:41.236Z,15.80
2022-11-16T18:31:13.281Z,15.45
2022-11-16T18:33:40.127Z,16.85
2022-11-16T18:36:08.331Z,15.43
2022-11-16T18:38:36.464Z,20.80
2022-11-16T18:41:25.191Z,18.75
2022-11-16T18:43:54.333Z,23.98
2022-11-16T18:46:23.777Z,15.30
2022-11-16T18:48:51.426Z,13.60
2022-11-16T18:51:22.388Z,14.00
2022-11-16T18:53:50.191Z,14.35
2022-11-16T18:56:17.788Z,14.63
2022-11-16T18:58:52.471Z,14.18
2022-11-16T19:01:24.635Z,15.00
2022-11-16T19:03:53.554Z,13.98
2022-11-16T19:06:21.169Z,14.38
2022-11-16T19:08:55.552Z,14.65
2022-11-16T19:11:23.457Z,15.43
2022-11-16T19:13:54.411Z,14.75
2022-11-16T19:18:48.314Z,15.48
2022-11-16T19:21:18.635Z,16.73
2022-11-16T19:23:47.794Z,15.07
2022-11-16T19:26:16.051Z,14.73
2022-11-16T19:28:45.013Z,14.55
2022-11-16T19:31:14.005Z,13.82
2022-11-16T19:33:42.008Z,14.13
2022-11-16T19:36:11.632Z,15.30
2022-11-16T19:38:39.225Z,16.40
2022-11-16T19:41:07.678Z,16.85
2022-11-16T19:43:35.281Z,16.00
2022-11-16T19:46:04.221Z,15.98
2022-11-16T19:48:32.813Z,17.20
2022-11-16T19:51:08.151Z,15.88
2022-11-16T19:53:36.234Z,15.52
2022-11-16T19:56:05.015Z,14.27
2022-11-16T19:58:33.235Z,20.80
2022-11-16T20:01:08.000Z,30.58
2022-11-16T20:03:35.513Z,14.82
2022-11-16T20:06:16.492Z,14.43
2022-11-16T20:08:48.357Z,14.95
2022-11-16T20:11:24.305Z,18.02
2022-11-16T20:13:55.925Z,13.65
2022-11-16T20:16:25.664Z,13.65
2022-11-16T20:18:53.577Z,13.23
2022-11-16T20:21:26.128Z,14.18
2022-11-16T20:23:53.523Z,14.65
2022-11-16T20:26:25.205Z,15.60
2022-11-16T20:28:53.022Z,13.63
2022-11-16T20:31:28.850Z,13.48
2022-11-16T20:34:00.461Z,12.90
2022-11-16T20:36:30.499Z,13.73
2022-11-16T20:38:59.032Z,13.93
2022-11-16T20:41:28.318Z,12.80
2022-11-16T20:43:57.298Z,13.38
2022-11-16T20:46:27.289Z,14.02
2022-11-16T20:48:55.950Z,14.63
2022-11-16T20:51:23.299Z,14.57
2022-11-16T20:53:50.731Z,13.98
2022-11-16T20:56:19.530Z,14.68
2022-11-16T20:58:47.185Z,15.25
2022-11-16T21:01:16.823Z,15.63
2022-11-16T21:03:47.139Z,15.65
2022-11-16T21:06:14.466Z,17.08
2022-11-16T21:08:41.877Z,16.33
2022-11-16T21:11:16.780Z,15.90
2022-11-16T21:14:06.076Z,17.48
2022-11-16T21:16:33.897Z,17.25
2022-11-16T21:19:01.382Z,18.85
2022-11-16T21:21:28.478Z,15.32
2022-11-16T21:23:55.255Z,14.88
2022-11-16T21:26:26.974Z,14.63
2022-11-16T21:28:55.479Z,15.40
2022-11-16T21:31:25.719Z,14.75
2022-11-16T21:33:53.396Z,14.52
2022-11-16T21:36:25.296Z,14.60
2022-11-16T21:38:52.919Z,14.23
2022-11-16T21:41:22.314Z,14.73
2022-11-16T21:43:49.020Z,16.23
2022-11-16T21:46:22.007Z,14.60
2022-11-16T21:48:50.924Z,14.18
2022-11-16T21:51:19.641Z,13.88
2022-11-16T21:53:46.387Z,15.93
2022-11-16T21:56:15.561Z,14.00
2022-11-16T21:58:48.173Z,14.40
2022-11-16T22:01:16.198Z,12.90
2022-11-16T22:03:43.269Z,12.23
2022-11-16T22:06:31.812Z,14.85
2022-11-16T22:08:58.371Z,12.32
2022-11-16T22:11:24.919Z,11.45
2022-11-16T22:13:51.481Z,11.55
2022-11-16T22:16:19.613Z,10.48
2022-11-16T22:18:46.478Z,10.55
2022-11-16T22:21:13.262Z,11.32
2022-11-16T22:23:40.039Z,12.15
2022-11-16T22:26:09.324Z,10.23
2022-11-16T22:28:36.742Z,10.43
2022-11-16T22:31:06.007Z,10.32
2022-11-16T22:33:33.699Z,10.43
2022-11-16T22:36:00.966Z,10.35
2022-11-16T22:38:27.589Z,10.57
2022-11-16T22:40:56.494Z,10.32
2022-11-16T22:43:25.378Z,11.38
2022-11-16T22:45:51.832Z,10.82
2022-11-16T22:48:18.325Z,10.52
2022-11-16T22:50:44.785Z,10.55
2022-11-16T22:53:11.224Z,11.02
2022-11-16T22:55:38.599Z,10.95
2022-11-16T22:58:05.796Z,11.18
2022-11-16T23:00:39.003Z,10.55
2022-11-16T23:03:08.519Z,11.25
2022-11-16T23:05:34.978Z,11.13
2022-11-16T23:08:01.442Z,9.80
2022-11-16T23:10:50.903Z,10.50
2022-11-16T23:13:36.143Z,10.52
2022-11-16T23:16:05.911Z,10.82
2022-11-16T23:18:32.370Z,10.95
2022-11-16T23:21:17.432Z,10.68
2022-11-16T23:24:03.072Z,10.13
2022-11-16T23:26:47.824Z,9.68
2022-11-16T23:29:14.533Z,10.45
2022-11-16T23:31:40.995Z,10.80
2022-11-16T23:34:07.395Z,10.93
2022-11-16T23:36:34.350Z,11.23
2022-11-16T23:39:00.746Z,10.52
2022-11-16T23:41:45.781Z,9.85
2022-11-16T23:44:12.292Z,12.18
2022-11-16T23:46:38.773Z,13.18
2022-11-16T23:49:05.378Z,12.93
2022-11-16T23:51:31.778Z,10.75
2022-11-16T23:54:01.287Z,11.07
2022-11-16T23:56:27.685Z,10.88
2022-11-16T23:58:57.374Z,11.55
